Time;durP1;ratioP1;P1;durP2;ratioP2;P2;SDS_P1;SDS_P2;PMS_P1;PMS_P2;Temp;Humidity;BMP_temperature;BMP_pressure;BME280_temperature;BME280_humidity;BME280_pressure;Samples;Min_cycle;Max_cycle;Signal;HPM_P1;HPM_P2
2023/05/02 00:01:19;;;;;;;8.97;8.20;;;;;;;6.76;100.00;96249.56;7397404;19;20424;-73
2023/05/02 00:03:46;;;;;;;9.40;8.50;;;;;;;6.77;100.00;96240.59;7397437;19;20345;-73
2023/05/02 00:06:13;;;;;;;9.60;8.70;;;;;;;6.18;100.00;96211.91;7399608;19;20712;-73
2023/05/02 00:08:40;;;;;;;10.67;9.60;;;;;;;6.61;100.00;96240.22;7397672;19;20425;-73
2023/05/02 00:11:07;;;;;;;10.80;9.80;;;;;;;6.50;100.00;96233.69;7398233;19;20391;-73
2023/05/02 00:13:34;;;;;;;11.30;8.73;;;;;;;6.32;100.00;96216.31;7401462;19;20675;-73
2023/05/02 00:16:01;;;;;;;9.90;9.00;;;;;;;6.69;100.00;96247.38;7397630;19;20427;-74
2023/05/02 00:18:28;;;;;;;9.83;8.93;;;;;;;6.69;100.00;96247.38;7397510;19;20436;-74
2023/05/02 00:20:55;;;;;;;9.27;8.47;;;;;;;6.56;100.00;96250.88;7395625;19;20484;-75
2023/05/02 00:23:22;;;;;;;10.03;9.13;;;;;;;6.65;100.00;96241.16;7400209;19;20344;-74
2023/05/02 00:25:49;;;;;;;11.43;10.33;;;;;;;6.50;100.00;96231.06;7398828;19;20366;-74
2023/05/02 00:28:17;;;;;;;11.07;10.07;;;;;;;6.63;100.00;96253.06;7397747;19;20916;-73
2023/05/02 00:30:45;;;;;;;10.73;9.70;;;;;;;6.64;100.00;96244.09;7397333;19;20446;-74
2023/05/02 00:33:14;;;;;;;11.80;9.87;;;;;;;6.29;100.00;96233.44;7400231;19;20378;-74
2023/05/02 00:35:41;;;;;;;10.10;9.30;;;;;;;6.48;100.00;96236.63;7397582;19;20353;-74
2023/05/02 00:38:08;;;;;;;9.77;8.97;;;;;;;6.50;100.00;96242.34;7399735;19;20503;-75
2023/05/02 00:40:46;;;;;;;10.43;9.57;;;;;;;6.50;100.00;96237.06;7393174;19;20372;-75
2023/05/02 00:43:14;;;;;;;10.60;9.60;;;;;;;6.56;100.00;96244.84;7397767;19;20385;-75
2023/05/02 00:45:42;;;;;;;16.67;10.10;;;;;;;6.58;100.00;96250.56;7397353;19;20956;-74
2023/05/02 00:48:10;;;;;;;10.50;9.40;;;;;;;6.65;100.00;96250.91;7396905;19;20405;-75
2023/05/02 00:50:41;;;;;;;11.00;9.93;;;;;;;6.35;100.00;96226.97;7397464;19;20376;-74
2023/05/02 00:53:09;;;;;;;11.47;9.10;;;;;;;6.43;100.00;96264.88;7396080;19;20391;-74
2023/05/02 00:55:36;;;;;;;8.53;7.73;;;;;;;6.19;100.00;96238.94;7397425;19;20393;-74
2023/05/02 00:58:15;;;;;;;10.40;9.20;;;;;;;6.32;100.00;96261.69;7398369;19;20972;-75
2023/05/02 01:01:07;;;;;;;9.77;8.77;;;;;;;6.29;100.00;96237.91;7403053;19;20920;-75
2023/05/02 01:03:58;;;;;;;9.90;9.03;;;;;;;6.14;100.00;96263.44;7399455;19;20376;-75
2023/05/02 01:06:41;;;;;;;9.20;8.40;;;;;;;6.28;100.00;96260.75;7398173;19;20696;-75
2023/05/02 01:09:11;;;;;;;9.20;8.40;;;;;;;6.15;100.00;96258.97;7394186;19;20464;-75
2023/05/02 01:11:54;;;;;;;9.80;8.80;;;;;;;5.71;100.00;96205.38;7398152;19;20381;-74
2023/05/02 01:14:23;;;;;;;9.20;8.40;;;;;;;5.91;100.00;96236.44;7395391;19;20937;-75
2023/05/02 01:16:52;;;;;;;9.77;8.83;;;;;;;5.97;100.00;96265.94;7396758;19;20400;-75
2023/05/02 01:19:28;;;;;;;11.43;9.20;;;;;;;5.68;100.00;96218.31;7395260;19;20426;-75
2023/05/02 01:21:56;;;;;;;10.13;8.27;;;;;;;5.96;100.00;96261.75;7397439;19;20368;-75
2023/05/02 01:24:59;;;;;;;10.20;8.87;;;;;;;5.99;100.00;96273.50;7395651;19;20877;-75
2023/05/02 01:27:47;;;;;;;8.83;8.03;;;;;;;5.92;100.00;96277.34;7394702;19;20455;-75
2023/05/02 01:30:17;;;;;;;9.70;8.70;;;;;;;5.22;100.00;96204.38;7394313;19;20412;-75
2023/05/02 01:32:46;;;;;;;11.23;8.10;;;;;;;5.52;100.00;96251.97;7395748;19;20465;-75
2023/05/02 01:35:15;;;;;;;9.40;8.57;;;;;;;5.58;100.00;96269.13;7394123;19;20377;-74
2023/05/02 01:37:45;;;;;;;9.80;9.00;;;;;;;5.45;100.00;96272.56;7393769;19;20422;-74
2023/05/02 01:40:17;;;;;;;9.83;7.90;;;;;;;5.71;100.00;96286.69;7393898;19;20372;-75
2023/05/02 01:42:47;;;;;;;10.60;9.60;;;;;;;5.63;100.00;96271.66;7396363;19;20364;-74
2023/05/02 01:45:15;;;;;;;9.37;8.37;;;;;;;5.53;100.00;96251.66;7396499;19;20353;-75
2023/05/02 01:47:44;;;;;;;9.70;8.80;;;;;;;5.43;100.00;96236.16;7395579;19;20392;-75
2023/05/02 01:50:15;;;;;;;8.87;8.17;;;;;;;5.71;100.00;96272.78;7394515;19;20420;-75
2023/05/02 01:52:45;;;;;;;8.63;7.67;;;;;;;5.86;100.00;96290.81;7398682;19;20373;-75
2023/05/02 01:55:16;;;;;;;14.13;8.80;;;;;;;5.58;100.00;96266.50;7398168;19;20408;-75
2023/05/02 01:57:45;;;;;;;7.63;6.90;;;;;;;5.43;100.00;96257.13;7400073;19;20416;-75
2023/05/02 02:00:16;;;;;;;8.53;7.73;;;;;;;5.35;100.00;96252.59;7399098;19;20397;-74
2023/05/02 02:02:45;;;;;;;10.40;9.50;;;;;;;5.62;100.00;96262.25;7398585;19;20707;-75
2023/05/02 02:05:13;;;;;;;9.90;9.00;;;;;;;5.82;100.00;96303.75;7400484;19;20393;-75
2023/05/02 02:07:42;;;;;;;8.80;8.00;;;;;;;5.37;100.00;96273.25;7397572;19;20409;-75
2023/05/02 02:10:09;;;;;;;8.73;7.83;;;;;;;5.24;100.00;96261.72;7399048;19;20412;-75
2023/05/02 02:12:49;;;;;;;8.57;7.87;;;;;;;5.36;100.00;96271.72;7396372;19;20360;-75
2023/05/02 02:15:32;;;;;;;11.20;8.27;;;;;;;5.48;100.00;96298.22;7401064;19;20417;-75
2023/05/02 02:18:04;;;;;;;8.80;8.00;;;;;;;5.07;100.00;96269.38;7398135;19;20424;-75
2023/05/02 02:20:33;;;;;;;8.73;7.83;;;;;;;4.89;100.00;96248.25;7397269;19;20349;-75
2023/05/02 02:23:05;;;;;;;8.50;7.80;;;;;;;5.02;100.00;96284.16;7400564;19;20380;-75
2023/05/02 02:25:33;;;;;;;9.93;9.00;;;;;;;5.22;100.00;96288.22;7395328;19;20352;-74
2023/05/02 02:28:00;;;;;;;9.53;8.50;;;;;;;5.35;100.00;96307.63;7394964;19;20440;-75
2023/05/02 02:30:27;;;;;;;9.37;8.57;;;;;;;5.37;100.00;96300.25;7400606;19;20387;-74
2023/05/02 02:32:54;;;;;;;9.07;8.13;;;;;;;5.22;100.00;96300.56;7402509;19;20369;-75
2023/05/02 02:35:22;;;;;;;9.57;8.77;;;;;;;5.09;100.00;96298.72;7400321;19;20353;-74
2023/05/02 02:38:24;;;;;;;8.43;7.63;;;;;;;5.09;100.00;96309.97;7401132;19;20435;-75
2023/05/02 02:40:56;;;;;;;8.60;7.80;;;;;;;4.91;100.00;96271.53;7398891;19;20396;-74
2023/05/02 02:43:49;;;;;;;9.67;7.80;;;;;;;4.71;100.00;96288.41;7399700;19;20920;-75
2023/05/02 02:46:22;;;;;;;9.63;8.43;;;;;;;5.03;100.00;96318.97;7403612;19;20431;-75
2023/05/02 02:49:05;;;;;;;8.20;7.37;;;;;;;4.63;100.00;96287.22;7398762;19;20436;-75
2023/05/02 02:51:43;;;;;;;8.37;7.60;;;;;;;4.58;100.00;96321.34;7399900;19;20380;-75
2023/05/02 02:54:32;;;;;;;9.57;8.10;;;;;;;4.67;100.00;96314.41;7401306;19;20360;-75
2023/05/02 02:57:29;;;;;;;11.07;9.23;;;;;;;4.93;100.00;96319.16;7402110;19;20377;-75
2023/05/02 03:00:19;;;;;;;9.43;8.60;;;;;;;4.67;100.00;96301.31;7399400;19;20356;-75
2023/05/02 03:02:47;;;;;;;9.90;9.00;;;;;;;4.75;100.00;96326.81;7399143;19;20404;-75
2023/05/02 03:05:15;;;;;;;10.00;9.00;;;;;;;4.77;100.00;96308.19;7401228;19;20785;-75
2023/05/02 03:07:42;;;;;;;9.80;8.90;;;;;;;4.75;100.00;96320.78;7399027;19;20416;-75
2023/05/02 03:10:10;;;;;;;12.10;9.87;;;;;;;4.65;100.00;96321.72;7401036;19;20400;-75
2023/05/02 03:12:42;;;;;;;9.37;8.30;;;;;;;4.77;100.00;96310.03;7399731;19;20402;-75
2023/05/02 03:15:47;;;;;;;10.60;9.50;;;;;;;4.97;100.00;96326.16;7401489;19;20384;-75
2023/05/02 03:18:14;;;;;;;12.43;11.23;;;;;;;4.80;100.00;96319.91;7399659;19;20428;-75
2023/05/02 03:20:41;;;;;;;14.53;10.67;;;;;;;4.81;100.00;96324.88;7398230;19;20886;-75
2023/05/02 03:23:09;;;;;;;12.67;11.47;;;;;;;4.84;100.00;96334.78;7400806;19;20495;-75
2023/05/02 03:25:37;;;;;;;15.33;12.17;;;;;;;4.67;100.00;96308.34;7398768;19;20361;-75
2023/05/02 03:28:08;;;;;;;18.00;10.57;;;;;;;4.78;100.00;96298.47;7399546;19;20420;-75
2023/05/02 03:30:39;;;;;;;16.83;10.97;;;;;;;4.99;100.00;96326.66;7398921;19;20394;-75
2023/05/02 03:33:07;;;;;;;22.20;11.87;;;;;;;5.00;100.00;96337.91;7400599;19;20380;-75
2023/05/02 03:35:35;;;;;;;15.97;11.10;;;;;;;4.71;100.00;96320.59;7399225;19;20373;-74
2023/05/02 03:38:02;;;;;;;19.37;11.30;;;;;;;4.85;100.00;96341.56;7399232;19;20953;-74
2023/05/02 03:40:29;;;;;;;15.93;10.57;;;;;;;4.75;100.00;96329.41;7396429;19;20395;-75
2023/05/02 03:42:56;;;;;;;11.80;9.87;;;;;;;4.64;100.00;96351.59;7400635;19;20380;-75
2023/05/02 03:45:28;;;;;;;11.77;10.40;;;;;;;4.58;100.00;96350.16;7398993;19;20929;-75
2023/05/02 03:47:55;;;;;;;11.30;10.20;;;;;;;4.66;100.00;96320.66;7399606;19;20421;-75
2023/05/02 03:50:23;;;;;;;14.17;10.70;;;;;;;4.79;100.00;96341.94;7398811;19;20892;-75
2023/05/02 03:52:51;;;;;;;14.00;11.07;;;;;;;4.95;100.00;96348.50;7400721;19;20369;-74
2023/05/02 03:55:27;;;;;;;12.13;10.87;;;;;;;4.65;100.00;96320.97;7399196;19;20372;-75
2023/05/02 03:57:55;;;;;;;12.13;10.93;;;;;;;4.73;100.00;96330.78;7397013;19;20494;-75
2023/05/02 04:00:22;;;;;;;15.93;11.40;;;;;;;4.96;100.00;96369.16;7399778;19;20341;-75
2023/05/02 04:02:56;;;;;;;15.23;10.93;;;;;;;4.96;100.00;96358.69;7417527;19;20386;-75
2023/05/02 04:05:26;;;;;;;11.23;10.03;;;;;;;4.97;100.00;96360.22;7429336;19;20380;-75
2023/05/02 04:07:54;;;;;;;15.00;11.73;;;;;;;4.90;100.00;96346.72;7425026;19;20432;-75
2023/05/02 04:10:21;;;;;;;15.27;12.17;;;;;;;4.95;100.00;96366.81;7404932;19;20413;-74
2023/05/02 04:12:54;;;;;;;11.90;10.00;;;;;;;4.91;100.00;96355.34;7398769;19;20376;-74
2023/05/02 04:15:21;;;;;;;11.90;10.13;;;;;;;4.99;100.00;96383.50;7400208;19;20369;-74
2023/05/02 04:17:50;;;;;;;18.73;12.40;;;;;;;4.81;100.00;96360.75;7397224;19;20405;-74
2023/05/02 04:20:18;;;;;;;12.57;11.23;;;;;;;4.84;100.00;96383.78;7399053;19;20379;-74
2023/05/02 04:22:49;;;;;;;18.37;13.63;;;;;;;4.90;100.00;96393.88;7397973;19;20880;-74
2023/05/02 04:25:17;;;;;;;18.80;14.97;;;;;;;4.92;100.00;96409.28;7399682;19;20429;-74
2023/05/02 04:27:44;;;;;;;16.30;13.20;;;;;;;4.59;100.00;96369.25;7397184;19;20416;-74
2023/05/02 04:30:15;;;;;;;14.03;11.70;;;;;;;4.38;100.00;96366.94;7396527;19;20414;-74
2023/05/02 04:32:47;;;;;;;15.23;11.67;;;;;;;4.45;100.00;96362.13;7397672;19;20387;-75
2023/05/02 04:35:14;;;;;;;13.27;10.27;;;;;;;4.49;100.00;96372.78;7396552;19;20472;-75
2023/05/02 04:37:41;;;;;;;19.50;13.13;;;;;;;4.65;100.00;96381.19;7396044;19;20420;-74
2023/05/02 04:40:09;;;;;;;13.73;10.93;;;;;;;4.54;100.00;96392.88;7396290;19;20401;-75
2023/05/02 04:42:37;;;;;;;17.80;11.17;;;;;;;4.34;100.00;96367.78;7395653;19;20714;-75
2023/05/02 04:45:14;;;;;;;23.50;11.37;;;;;;;4.52;100.00;96408.88;7396840;19;20417;-74
2023/05/02 04:47:42;;;;;;;15.87;11.03;;;;;;;4.49;100.00;96380.66;7397430;19;20417;-75
2023/05/02 04:50:10;;;;;;;27.70;11.70;;;;;;;4.54;100.00;96393.69;7396022;19;20389;-74
2023/05/02 04:52:37;;;;;;;16.83;11.33;;;;;;;4.68;100.00;96409.44;7397815;19;20731;-74
2023/05/02 04:55:05;;;;;;;18.47;11.37;;;;;;;4.66;100.00;96388.75;7396375;19;20966;-75
2023/05/02 04:57:32;;;;;;;13.40;12.00;;;;;;;5.26;100.00;96408.97;7397612;19;20928;-74
2023/05/02 05:00:00;;;;;;;15.37;11.40;;;;;;;5.12;100.00;96426.53;7396268;19;20372;-74
2023/05/02 05:02:28;;;;;;;17.57;12.00;;;;;;;5.09;100.00;96420.03;7396234;19;20416;-74
2023/05/02 05:04:56;;;;;;;14.73;11.87;;;;;;;5.18;100.00;96399.94;7396643;19;20365;-75
2023/05/02 05:07:24;;;;;;;14.50;13.10;;;;;;;5.22;100.00;96398.31;7397447;19;20931;-74
2023/05/02 05:09:52;;;;;;;12.37;10.80;;;;;;;5.36;100.00;96393.06;7396033;19;20948;-75
2023/05/02 05:12:22;;;;;;;12.10;11.00;;;;;;;5.53;100.00;96432.59;7394652;19;20483;-75
2023/05/02 05:14:49;;;;;;;12.83;11.53;;;;;;;5.64;100.00;96444.47;7396306;19;20372;-75
2023/05/02 05:17:18;;;;;;;16.17;10.47;;;;;;;5.62;100.00;96423.00;7394507;19;20393;-75
2023/05/02 05:19:45;;;;;;;11.43;10.30;;;;;;;5.66;100.00;96409.28;7405812;19;20413;-74
2023/05/02 05:22:12;;;;;;;11.43;10.23;;;;;;;5.56;100.00;96418.13;7402882;19;20384;-74
2023/05/02 05:24:39;;;;;;;13.60;11.70;;;;;;;5.96;100.00;96449.91;7405132;19;20717;-75
2023/05/02 05:27:06;;;;;;;16.50;12.73;;;;;;;5.97;100.00;96439.13;7403521;19;20929;-75
2023/05/02 05:29:33;;;;;;;13.77;11.60;;;;;;;6.14;100.00;96428.00;7401573;19;20424;-74
2023/05/02 05:32:00;;;;;;;12.93;11.60;;;;;;;6.12;100.00;96440.66;7401064;19;20420;-74
2023/05/02 05:34:28;;;;;;;14.43;11.90;;;;;;;5.95;100.00;96422.13;7401876;19;20749;-75
2023/05/02 05:36:57;;;;;;;13.10;11.80;;;;;;;6.52;100.00;96452.13;7399301;19;20955;-75
2023/05/02 05:39:24;;;;;;;16.43;13.80;;;;;;;6.47;100.00;96460.91;7396815;19;20435;-74
2023/05/02 05:41:53;;;;;;;15.43;12.40;;;;;;;6.46;100.00;96456.75;7393463;19;20754;-76
2023/05/02 05:44:24;;;;;;;14.23;12.80;;;;;;;6.43;100.00;96472.31;7397575;19;20380;-76
2023/05/02 05:46:51;;;;;;;14.40;12.13;;;;;;;6.23;100.00;96457.75;7394748;19;20756;-76
2023/05/02 05:49:21;;;;;;;14.10;12.63;;;;;;;6.44;100.00;96463.38;7394572;19;20409;-76
2023/05/02 05:51:48;;;;;;;14.67;13.17;;;;;;;6.49;100.00;96443.00;7394823;19;20387;-76
2023/05/02 05:54:17;;;;;;;12.90;11.60;;;;;;;6.86;100.00;96474.53;7395833;19;20901;-76
2023/05/02 05:56:45;;;;;;;14.70;13.10;;;;;;;7.01;100.00;96484.69;7394474;19;20368;-76
2023/05/02 05:59:15;;;;;;;14.40;12.90;;;;;;;6.88;100.00;96481.03;7394973;19;20469;-76
2023/05/02 06:01:42;;;;;;;14.63;13.20;;;;;;;6.89;100.00;96477.31;7393488;19;20383;-76
2023/05/02 06:04:10;;;;;;;12.53;11.23;;;;;;;6.87;100.00;96474.22;7393399;19;20942;-77
2023/05/02 06:06:41;;;;;;;11.63;10.47;;;;;;;6.88;100.00;96469.75;7395460;19;20734;-77
2023/05/02 06:09:08;;;;;;;12.30;11.17;;;;;;;6.83;100.00;96444.38;7393264;19;20436;-77
2023/05/02 06:11:37;;;;;;;13.50;12.13;;;;;;;7.04;100.00;96457.78;7395044;19;20380;-77
2023/05/02 06:14:05;;;;;;;11.93;10.83;;;;;;;7.17;100.00;96475.34;7393346;19;20444;-76
2023/05/02 06:16:32;;;;;;;13.33;11.93;;;;;;;7.17;100.00;96470.09;7396796;19;20389;-77
2023/05/02 06:18:59;;;;;;;12.80;11.50;;;;;;;7.13;100.00;96479.66;7391921;19;20440;-76
2023/05/02 06:21:26;;;;;;;12.60;11.40;;;;;;;7.39;100.00;96492.97;7394370;19;20393;-77
2023/05/02 06:23:53;;;;;;;14.43;13.03;;;;;;;7.42;100.00;96476.56;7393221;19;20732;-76
2023/05/02 06:26:20;;;;;;;12.23;10.90;;;;;;;7.06;100.00;96435.38;7394972;19;20379;-77
2023/05/02 06:28:47;;;;;;;12.80;11.57;;;;;;;7.88;100.00;96515.66;7391864;19;20941;-76
2023/05/02 06:31:15;;;;;;;11.73;10.53;;;;;;;7.87;100.00;96508.03;7396271;19;20686;-76
2023/05/02 06:33:42;;;;;;;12.20;11.00;;;;;;;8.01;100.00;96524.50;7392985;19;20372;-77
2023/05/02 06:36:09;;;;;;;17.20;10.87;;;;;;;7.98;100.00;96531.16;7394729;19;20451;-76
2023/05/02 06:38:35;;;;;;;13.43;12.13;;;;;;;7.89;100.00;96501.41;7391793;19;20522;-77
2023/05/02 06:41:02;;;;;;;12.23;11.03;;;;;;;8.27;100.00;96517.47;7394412;19;20483;-76
2023/05/02 06:43:29;;;;;;;13.03;11.83;;;;;;;8.42;100.00;96512.91;7392981;19;20832;-77
2023/05/02 06:45:57;;;;;;;11.57;10.47;;;;;;;8.65;100.00;96534.63;7395028;19;20452;-77
2023/05/02 06:48:24;;;;;;;12.93;11.77;;;;;;;8.71;100.00;96528.91;7392363;19;20736;-77
2023/05/02 06:50:52;;;;;;;13.93;12.53;;;;;;;8.15;100.00;96500.72;7394293;19;20470;-77
2023/05/02 06:53:19;;;;;;;12.00;11.00;;;;;;;8.57;100.00;96521.16;7393022;19;20376;-77
2023/05/02 06:55:47;;;;;;;13.10;11.80;;;;;;;8.53;100.00;96514.91;7396362;19;20373;-77
2023/05/02 06:58:15;;;;;;;14.40;11.00;;;;;;;8.75;100.00;96497.44;7391750;19;20447;-77
2023/05/02 07:00:42;;;;;;;11.87;10.70;;;;;;;9.17;100.00;96552.03;7394695;19;20453;-77
2023/05/02 07:03:10;;;;;;;14.37;12.97;;;;;;;9.28;100.00;96560.41;7390861;19;20388;-76
2023/05/02 07:05:37;;;;;;;13.53;12.10;;;;;;;9.30;100.00;96562.75;7395576;19;20401;-77
2023/05/02 07:08:04;;;;;;;15.03;13.60;;;;;;;9.16;100.00;96539.94;7393410;19;20463;-76
2023/05/02 07:10:31;;;;;;;13.30;11.83;;;;;;;9.15;100.00;96519.91;7395904;19;20357;-77
2023/05/02 07:12:58;;;;;;;13.53;12.20;;;;;;;9.30;100.00;96550.31;7395749;19;20398;-77
2023/05/02 07:15:25;;;;;;;13.13;11.83;;;;;;;9.23;100.00;96530.78;7402757;19;20366;-76
2023/05/02 07:17:52;;;;;;;11.47;10.47;;;;;;;9.50;100.00;96556.06;7400813;19;20412;-77
2023/05/02 07:20:19;;;;;;;15.37;12.27;;;;;;;9.67;100.00;96575.28;7404368;19;20370;-77
2023/05/02 07:22:46;;;;;;;13.93;12.53;;;;;;;9.06;100.00;96550.78;7399633;19;20413;-77
2023/05/02 07:25:13;;;;;;;14.03;12.53;;;;;;;9.00;100.00;96536.22;7403017;19;20792;-77
2023/05/02 07:27:40;;;;;;;14.67;11.37;;;;;;;9.33;100.00;96562.88;7401179;19;20402;-77
2023/05/02 07:30:07;;;;;;;12.70;10.97;;;;;;;9.02;100.00;96525.34;7401314;19;20345;-77
2023/05/02 07:32:34;;;;;;;12.83;11.70;;;;;;;9.40;100.00;96542.09;7401087;19;20352;-77
2023/05/02 07:35:01;;;;;;;13.00;11.80;;;;;;;9.32;100.00;96536.81;7400281;19;20414;-77
2023/05/02 07:37:32;;;;;;;12.57;11.40;;;;;;;9.62;100.00;96572.03;7400723;19;20421;-76
2023/05/02 07:40:00;;;;;;;14.20;12.87;;;;;;;9.57;100.00;96580.09;7400753;19;20707;-77
2023/05/02 07:42:31;;;;;;;11.40;10.27;;;;;;;9.83;100.00;96585.34;7406570;19;20369;-77
2023/05/02 07:44:59;;;;;;;11.83;10.70;;;;;;;9.51;100.00;96553.09;7403354;19;20385;-77
2023/05/02 07:47:26;;;;;;;10.63;9.67;;;;;;;9.33;100.00;96549.69;7401081;19;20387;-76
2023/05/02 07:49:54;;;;;;;12.93;11.83;;;;;;;9.60;100.00;96603.22;7399564;19;20387;-76
2023/05/02 07:52:21;;;;;;;11.63;10.43;;;;;;;9.67;100.00;96614.88;7400554;19;20376;-75
2023/05/02 07:54:48;;;;;;;12.90;11.60;;;;;;;9.64;100.00;96604.16;7397990;19;20806;-76
2023/05/02 07:57:15;;;;;;;15.63;12.20;;;;;;;9.69;100.00;96615.34;7401178;19;20377;-76
2023/05/02 07:59:42;;;;;;;12.40;10.77;;;;;;;9.68;100.00;96597.16;7397774;19;20413;-76
2023/05/02 08:02:11;;;;;;;13.50;12.27;;;;;;;9.59;100.00;96591.13;7400283;19;20349;-75
2023/05/02 08:04:39;;;;;;;12.20;11.00;;;;;;;9.97;100.00;96625.53;7398402;19;20364;-76
2023/05/02 08:07:06;;;;;;;12.57;11.27;;;;;;;9.80;100.00;96601.81;7401104;19;20385;-76
2023/05/02 08:09:33;;;;;;;13.10;11.80;;;;;;;10.11;100.00;96633.28;7396302;19;20429;-76
2023/05/02 08:12:04;;;;;;;11.93;10.77;;;;;;;10.27;100.00;96618.47;7399494;19;20389;-76
2023/05/02 08:14:30;;;;;;;13.67;12.43;;;;;;;10.17;100.00;96593.16;7398007;19;20719;-76
2023/05/02 08:16:59;;;;;;;11.50;10.07;;;;;;;10.72;100.00;96634.63;7396533;19;20396;-76
2023/05/02 08:19:26;;;;;;;11.23;10.13;;;;;;;10.78;100.00;96653.72;7396140;19;20436;-76
2023/05/02 08:21:53;;;;;;;11.20;9.03;;;;;;;10.77;100.00;96634.44;7399035;19;20370;-77
2023/05/02 08:24:21;;;;;;;9.90;9.00;;;;;;;10.56;100.00;96639.69;7397464;19;20433;-76
2023/05/02 08:26:48;;;;;;;10.20;7.63;;;;;;;10.28;100.00;96628.75;7399925;19;20783;-75
2023/05/02 08:29:15;;;;;;;10.03;9.03;;;;;;;10.38;100.00;96610.97;7395878;19;20996;-76
2023/05/02 08:31:42;;;;;;;14.13;11.60;;;;;;;10.64;100.00;96660.00;7399240;19;20369;-76
2023/05/02 08:34:09;;;;;;;10.17;9.20;;;;;;;10.79;100.00;96666.63;7397937;19;20392;-76
2023/05/02 08:36:36;;;;;;;10.83;9.80;;;;;;;10.55;100.00;96656.66;7396059;19;20402;-76
2023/05/02 08:39:03;;;;;;;10.30;8.70;;;;;;;10.62;100.00;96641.06;7398064;19;20474;-76
2023/05/02 08:41:30;;;;;;;11.20;10.10;;;;;;;10.80;100.00;96641.72;7397347;19;20377;-76
2023/05/02 08:43:58;;;;;;;9.70;8.73;;;;;;;10.59;100.00;96636.41;7397323;19;20950;-76
2023/05/02 08:46:29;;;;;;;10.90;9.80;;;;;;;10.74;100.00;96669.47;7394594;19;20398;-76
2023/05/02 08:48:57;;;;;;;10.83;9.83;;;;;;;11.13;100.00;96649.81;7396328;19;20428;-76
2023/05/02 08:51:27;;;;;;;11.10;10.10;;;;;;;11.07;100.00;96690.00;7396283;19;20387;-76
2023/05/02 08:53:56;;;;;;;10.97;9.97;;;;;;;11.19;100.00;96682.13;7399277;19;20384;-76
2023/05/02 08:56:24;;;;;;;12.03;10.27;;;;;;;11.25;100.00;96684.28;7396226;19;20393;-76
2023/05/02 08:58:51;;;;;;;11.87;10.73;;;;;;;10.99;100.00;96651.16;7398057;19;20418;-76
2023/05/02 09:01:22;;;;;;;10.73;9.73;;;;;;;11.04;100.00;96675.53;7397469;19;20381;-76
2023/05/02 09:03:49;;;;;;;10.03;9.03;;;;;;;10.63;100.00;96639.97;7395814;19;20373;-76
2023/05/02 09:06:17;;;;;;;9.97;8.80;;;;;;;11.03;100.00;96700.44;7396345;19;20373;-76
2023/05/02 09:08:48;;;;;;;10.63;9.63;;;;;;;11.05;100.00;96702.78;7396461;19;20440;-76
2023/05/02 09:11:16;;;;;;;11.00;10.00;;;;;;;11.28;100.00;96701.41;7397394;19;20365;-76
2023/05/02 09:13:43;;;;;;;11.40;10.40;;;;;;;11.30;100.00;96711.66;7397664;19;20918;-76
2023/05/02 09:16:11;;;;;;;11.43;10.07;;;;;;;11.46;100.00;96710.00;7396370;19;20397;-75
2023/05/02 09:18:42;;;;;;;10.10;9.20;;;;;;;10.96;100.00;96647.28;7396538;19;20404;-76
2023/05/02 09:21:11;;;;;;;9.23;8.50;;;;;;;10.99;100.00;96667.78;7396142;19;20376;-76
2023/05/02 09:23:46;;;;;;;10.47;9.37;;;;;;;11.10;100.00;96706.03;7396170;19;20383;-75
2023/05/02 09:26:15;;;;;;;11.30;10.10;;;;;;;11.47;100.00;96716.84;7396439;19;20471;-76
2023/05/02 09:28:44;;;;;;;11.10;9.00;;;;;;;11.22;100.00;96684.16;7393995;19;20572;-76
2023/05/02 09:31:17;;;;;;;12.47;10.47;;;;;;;11.41;100.00;96712.84;7397032;19;20380;-76
2023/05/02 09:34:12;;;;;;;9.17;8.37;;;;;;;11.37;100.00;96715.38;7396266;19;20353;-76
2023/05/02 09:36:52;;;;;;;9.00;8.27;;;;;;;11.59;100.00;96718.78;7397558;19;20732;-76
2023/05/02 09:39:28;;;;;;;9.57;8.53;;;;;;;11.23;100.00;96694.44;7396451;19;20432;-76
2023/05/02 09:41:56;;;;;;;9.47;8.60;;;;;;;11.28;100.00;96693.47;7396363;19;20393;-75
2023/05/02 09:44:25;;;;;;;9.60;8.80;;;;;;;11.43;100.00;96695.53;7397135;19;20413;-75
2023/05/02 09:46:54;;;;;;;8.90;7.90;;;;;;;11.45;100.00;96724.34;7396586;19;20383;-76
2023/05/02 09:49:44;;;;;;;9.80;8.80;;;;;;;11.45;100.00;96714.53;7406090;19;20401;-76
2023/05/02 09:52:14;;;;;;;10.80;8.93;;;;;;;11.14;100.00;96669.88;7431172;19;20397;-76
2023/05/02 09:54:41;;;;;;;11.03;10.10;;;;;;;11.46;100.00;96733.84;7429805;19;20393;-76
2023/05/02 09:57:09;;;;;;;12.90;10.60;;;;;;;11.34;100.00;96697.47;7423342;19;20384;-76
2023/05/02 09:59:38;;;;;;;10.13;9.20;;;;;;;11.46;100.00;96710.78;7393285;19;20435;-76
2023/05/02 10:02:08;;;;;;;9.07;8.23;;;;;;;11.60;100.00;96726.41;7395534;19;20364;-76
2023/05/02 10:04:36;;;;;;;9.13;8.33;;;;;;;11.49;100.00;96720.75;7394319;19;20364;-76
2023/05/02 10:07:05;;;;;;;9.20;7.97;;;;;;;11.29;100.00;96702.19;7396253;19;20380;-76
2023/05/02 10:09:35;;;;;;;11.50;10.40;;;;;;;11.52;100.00;96724.63;7393254;19;20400;-76
2023/05/02 10:12:03;;;;;;;9.10;8.10;;;;;;;11.79;100.00;96729.44;7395984;19;20433;-76
2023/05/02 10:14:38;;;;;;;10.23;9.30;;;;;;;11.38;100.00;96708.97;7394988;19;20380;-76
2023/05/02 10:17:33;;;;;;;9.20;8.30;;;;;;;11.55;100.00;96721.31;7397870;19;20819;-76
2023/05/02 10:20:05;;;;;;;10.27;8.13;;;;;;;11.76;100.00;96708.88;7395448;19;20380;-76
2023/05/02 10:22:34;;;;;;;10.00;9.10;;;;;;;12.02;100.00;96729.06;7394744;19;20373;-76
2023/05/02 10:25:02;;;;;;;10.03;9.03;;;;;;;12.00;100.00;96744.53;7396166;19;20476;-76
2023/05/02 10:27:30;;;;;;;9.80;8.90;;;;;;;12.22;100.00;96744.19;7393814;19;20739;-76
2023/05/02 10:29:59;;;;;;;11.90;10.67;;;;;;;12.19;100.00;96720.22;7395548;19;20900;-76
2023/05/02 10:32:32;;;;;;;9.87;8.97;;;;;;;12.45;100.00;96741.19;7394376;19;20740;-76
2023/05/02 10:35:04;;;;;;;11.03;9.87;;;;;;;12.45;100.00;96719.97;7392997;19;20940;-76
2023/05/02 10:37:35;;;;;;;9.93;9.10;;;;;;;12.26;100.00;96746.97;7393227;19;20435;-76
2023/05/02 10:40:04;;;;;;;10.00;9.00;;;;;;;12.22;100.00;96741.53;7393062;19;20392;-76
2023/05/02 10:42:37;;;;;;;9.00;8.20;;;;;;;12.82;100.00;96736.69;7393933;19;20741;-76
2023/05/02 10:45:10;;;;;;;11.50;9.93;;;;;;;12.80;100.00;96710.50;7393050;19;20380;-76
2023/05/02 10:47:37;;;;;;;9.73;8.93;;;;;;;13.31;100.00;96738.31;7395305;19;20373;-75
2023/05/02 10:50:05;;;;;;;13.30;9.70;;;;;;;13.46;100.00;96715.59;7400772;19;20718;-76
2023/05/02 10:52:37;;;;;;;10.23;9.23;;;;;;;13.58;100.00;96733.41;7403892;19;20701;-76
2023/05/02 10:55:20;;;;;;;10.10;8.77;;;;;;;13.76;100.00;96742.69;7402697;19;20381;-76
2023/05/02 10:57:59;;;;;;;9.30;8.27;;;;;;;13.51;100.00;96741.16;7399219;19;20429;-76
2023/05/02 11:00:29;;;;;;;10.10;9.20;;;;;;;13.25;100.00;96704.34;7401493;19;20412;-76
2023/05/02 11:02:56;;;;;;;10.33;9.30;;;;;;;13.60;100.00;96733.84;7401194;19;20369;-76
2023/05/02 11:05:24;;;;;;;11.63;10.53;;;;;;;13.72;100.00;96706.47;7401649;19;20349;-76
2023/05/02 11:08:16;;;;;;;10.20;8.10;;;;;;;14.23;100.00;96731.44;7400997;19;20417;-76
2023/05/02 11:10:47;;;;;;;10.80;9.27;;;;;;;14.16;100.00;96716.06;7402016;19;20392;-76
2023/05/02 11:13:14;;;;;;;9.70;8.67;;;;;;;14.48;100.00;96708.94;7400780;19;20751;-76
2023/05/02 11:15:41;;;;;;;10.70;9.20;;;;;;;14.53;100.00;96734.50;7400610;19;20359;-76
2023/05/02 11:18:12;;;;;;;9.47;8.70;;;;;;;14.96;100.00;96711.63;7399978;19;20492;-76
2023/05/02 11:20:44;;;;;;;10.27;9.17;;;;;;;15.55;100.00;96721.31;7400753;19;20340;-76
2023/05/02 11:23:20;;;;;;;10.67;9.77;;;;;;;15.63;100.00;96737.16;7401331;19;20377;-76
2023/05/02 11:25:49;;;;;;;9.23;8.20;;;;;;;15.83;100.00;96732.59;7399752;19;20372;-76
2023/05/02 11:28:35;;;;;;;9.17;8.43;;;;;;;15.70;100.00;96735.75;7400133;19;20448;-76
2023/05/02 11:31:06;;;;;;;8.40;7.60;;;;;;;16.10;100.00;96719.41;7399973;19;20742;-76
2023/05/02 11:33:33;;;;;;;6.73;6.23;;;;;;;15.15;100.00;96709.03;7399200;19;20380;-76
2023/05/02 11:36:00;;;;;;;8.70;7.00;;;;;;;14.60;100.00;96694.03;7401767;19;20349;-76